createdAt,value
2019-05-14T00:01:42.233Z,101880.52
2019-05-14T00:04:28.741Z,101880.96
2019-05-14T00:07:15.423Z,101878.31
2019-05-14T00:10:01.816Z,101881.77
2019-05-14T00:12:48.232Z,101878.14
2019-05-14T00:15:15.964Z,101879.06
2019-05-14T00:17:43.675Z,101879.06
2019-05-14T00:20:13.224Z,101876.46
2019-05-14T00:23:01.396Z,101879.80
2019-05-14T00:25:47.545Z,101882.98
2019-05-14T00:31:07.445Z,101881.74
2019-05-14T00:33:35.194Z,101873.39
2019-05-14T00:36:02.856Z,101880.66
2019-05-14T00:38:51.282Z,101878.63
2019-05-14T00:41:31.214Z,101878.63
2019-05-14T00:43:48.177Z,101875.34
2019-05-14T00:54:11.607Z,101884.26
2019-05-14T00:56:41.446Z,101886.59
2019-05-14T00:59:08.526Z,101880.13
2019-05-14T01:01:54.955Z,101882.25
2019-05-14T01:04:42.783Z,101876.23
2019-05-14T01:07:31.504Z,101875.14
2019-05-14T01:09:58.770Z,101875.14
2019-05-14T01:12:26.536Z,101864.22
2019-05-14T01:15:07.026Z,101863.50
2019-05-14T01:17:42.359Z,101861.16
2019-05-14T01:20:29.037Z,101863.96
2019-05-14T01:22:56.616Z,101863.96
2019-05-14T01:25:24.391Z,101856.37
2019-05-14T01:30:57.451Z,101857.36
2019-05-14T01:33:43.855Z,101853.66
2019-05-14T01:36:32.056Z,101851.16
2019-05-14T01:39:01.766Z,101851.16
2019-05-14T01:41:31.510Z,101855.68
2019-05-14T01:43:58.220Z,101847.37
2019-05-14T01:46:25.943Z,101850.10
2019-05-14T01:49:12.283Z,101845.44
2019-05-14T01:51:42.136Z,101846.42
2019-05-14T01:54:11.780Z,101846.42
2019-05-14T01:56:38.917Z,101839.92
2019-05-14T01:59:25.961Z,101841.47
2019-05-14T02:01:53.592Z,101827.50
2019-05-14T02:04:22.079Z,101828.52
2019-05-14T02:07:11.365Z,101822.56
2019-05-14T02:09:41.755Z,101822.56
2019-05-14T02:12:27.463Z,101817.83
2019-05-14T02:14:55.234Z,101817.17
2019-05-14T02:17:41.857Z,101820.73
2019-05-14T02:20:09.690Z,101820.73
2019-05-14T02:22:56.750Z,101809.23
2019-05-14T02:28:31.465Z,101803.23
2019-05-14T02:31:03.096Z,101803.23
2019-05-14T02:33:30.675Z,101793.66
2019-05-14T02:35:59.988Z,101789.80
2019-05-14T02:38:49.090Z,101784.19
2019-05-14T02:41:34.263Z,101784.19
2019-05-14T02:44:01.970Z,101782.17
2019-05-14T02:46:29.915Z,101779.94
2019-05-14T02:49:19.265Z,101779.94
2019-05-14T02:51:45.754Z,101783.70
2019-05-14T02:54:13.414Z,101785.23
2019-05-14T02:57:00.338Z,101784.56
2019-05-14T02:59:50.215Z,101777.84
2019-05-14T03:02:35.892Z,101777.84
2019-05-14T03:05:03.651Z,101782.56
2019-05-14T03:10:19.371Z,101782.76
2019-05-14T03:12:49.210Z,101782.70
2019-05-14T03:17:49.543Z,101786.80
2019-05-14T03:20:38.959Z,101788.45
2019-05-14T03:23:25.184Z,101796.41
2019-05-14T03:25:52.949Z,101801.20
2019-05-14T03:28:40.089Z,101801.20
2019-05-14T03:31:12.844Z,101804.85
2019-05-14T03:36:44.182Z,101805.83
2019-05-14T03:39:12.998Z,101805.83
2019-05-14T03:41:42.706Z,101814.95
2019-05-14T03:44:29.337Z,101813.55
2019-05-14T03:47:19.670Z,101798.20
2019-05-14T03:49:49.562Z,101798.20
2019-05-14T03:55:09.424Z,101790.27
2019-05-14T03:57:39.859Z,101790.27
2019-05-14T04:03:12.114Z,101791.30
2019-05-14T04:05:40.275Z,101786.60
2019-05-14T04:08:29.348Z,101780.55
2019-05-14T04:10:59.113Z,101780.55
2019-05-14T04:13:45.332Z,101783.70
2019-05-14T04:19:05.232Z,101777.39
2019-05-14T04:21:51.686Z,101790.67
2019-05-14T04:24:20.184Z,101787.19
2019-05-14T04:26:58.306Z,101787.19
2019-05-14T04:29:19.688Z,101790.31
2019-05-14T04:31:50.151Z,101784.95
2019-05-14T04:37:09.676Z,101795.33
2019-05-14T04:39:39.568Z,101795.33
2019-05-14T04:45:04.475Z,101782.92
2019-05-14T04:50:35.051Z,101796.14
2019-05-14T04:53:02.757Z,101796.14
2019-05-14T04:55:50.809Z,101787.23
2019-05-14T04:58:21.564Z,101785.38
2019-05-14T05:01:09.580Z,101781.72
2019-05-14T05:03:54.713Z,101776.87
2019-05-14T05:06:41.094Z,101779.83
2019-05-14T05:09:09.427Z,101779.83
2019-05-14T05:11:59.534Z,101781.44
2019-05-14T05:14:26.001Z,101781.44
2019-05-14T05:17:12.400Z,101782.55
2019-05-14T05:19:45.054Z,101782.55
2019-05-14T05:22:09.395Z,101785.09
2019-05-14T05:32:33.527Z,101773.27
2019-05-14T05:35:01.279Z,101773.27
2019-05-14T05:37:49.077Z,101775.41
2019-05-14T05:40:19.484Z,101771.03
2019-05-14T05:42:48.833Z,101768.83
2019-05-14T05:45:34.533Z,101775.41
2019-05-14T05:48:20.894Z,101775.41
2019-05-14T05:50:50.851Z,101763.72
2019-05-14T05:53:39.292Z,101753.97
2019-05-14T05:56:09.002Z,101753.97
2019-05-14T05:58:54.562Z,101752.39
2019-05-14T06:01:54.328Z,101751.94
2019-05-14T06:04:29.240Z,101751.94
2019-05-14T06:07:15.550Z,101752.58
2019-05-14T06:10:02.001Z,101759.70
2019-05-14T06:12:29.781Z,101759.70
2019-05-14T06:15:16.156Z,101753.25
2019-05-14T06:17:43.753Z,101753.36
2019-05-14T06:20:43.751Z,101758.30
2019-05-14T06:23:01.376Z,101752.41
2019-05-14T06:25:49.114Z,101752.41
2019-05-14T06:28:20.556Z,101754.52
2019-05-14T06:31:05.120Z,101747.71
2019-05-14T06:33:34.446Z,101740.52
2019-05-14T06:36:20.863Z,101739.78
2019-05-14T06:38:49.462Z,101739.78
2019-05-14T06:41:40.197Z,101733.36
2019-05-14T06:44:05.910Z,101734.66
2019-05-14T06:46:52.942Z,101725.77
2019-05-14T06:49:21.637Z,101725.77
2019-05-14T06:51:49.341Z,101726.59
2019-05-14T06:54:35.801Z,101726.59
2019-05-14T06:57:03.392Z,101718.86
2019-05-14T06:59:49.851Z,101718.86
2019-05-14T07:02:40.676Z,101717.66
2019-05-14T07:05:24.315Z,101710.13
2019-05-14T07:07:54.214Z,101710.13
2019-05-14T07:10:21.921Z,101713.01
2019-05-14T07:12:50.020Z,101713.25
2019-05-14T07:15:19.344Z,101712.89
2019-05-14T07:17:50.856Z,101708.94
2019-05-14T07:20:18.938Z,101709.59
2019-05-14T07:22:48.302Z,101699.59
2019-05-14T07:25:18.252Z,101698.27
2019-05-14T07:27:45.349Z,101695.16
2019-05-14T07:30:13.010Z,101708.08
2019-05-14T07:32:40.854Z,101707.06
2019-05-14T07:35:09.134Z,101694.44
2019-05-14T07:37:39.323Z,101694.44
2019-05-14T07:40:08.551Z,101697.98
2019-05-14T07:42:38.269Z,101689.25
2019-05-14T07:45:05.346Z,101689.27
2019-05-14T07:47:33.253Z,101689.27
2019-05-14T07:50:05.265Z,101678.01
2019-05-14T07:52:35.217Z,101678.01
2019-05-14T07:55:03.109Z,101680.13
2019-05-14T07:57:34.717Z,101687.50
2019-05-14T08:00:02.348Z,101684.75
2019-05-14T08:02:30.334Z,101678.19
2019-05-14T08:04:58.162Z,101680.38
2019-05-14T08:07:28.225Z,101679.03
2019-05-14T08:09:58.298Z,101677.49
2019-05-14T08:12:25.454Z,101674.94
2019-05-14T08:15:13.190Z,101674.94
2019-05-14T08:17:22.727Z,101660.02
2019-05-14T08:19:50.340Z,101663.73
2019-05-14T08:22:18.755Z,101664.69
2019-05-14T08:24:48.741Z,101667.73
2019-05-14T08:27:19.135Z,101667.73
2019-05-14T08:29:45.321Z,101665.03
2019-05-14T08:32:13.246Z,101657.73
2019-05-14T08:34:40.866Z,101663.65
2019-05-14T08:37:10.923Z,101662.64
2019-05-14T08:39:39.383Z,101661.43
2019-05-14T08:42:10.500Z,101660.72
2019-05-14T08:44:39.022Z,101662.72
2019-05-14T08:47:12.161Z,101656.13
2019-05-14T08:49:46.389Z,101656.13
2019-05-14T08:52:09.048Z,101659.38
2019-05-14T08:54:39.091Z,101658.83
2019-05-14T08:57:09.396Z,101651.48
2019-05-14T08:59:39.334Z,101653.41
2019-05-14T09:02:09.551Z,101649.20
2019-05-14T09:04:43.073Z,101640.13
2019-05-14T09:07:09.456Z,101630.80
2019-05-14T09:09:40.136Z,101625.61
2019-05-14T09:12:12.648Z,101619.53
2019-05-14T09:14:42.391Z,101608.52
2019-05-14T09:17:22.020Z,101607.63
2019-05-14T09:20:02.276Z,101600.23
2019-05-14T09:22:19.228Z,101600.23
2019-05-14T09:24:49.220Z,101600.90
2019-05-14T09:27:19.309Z,101596.28
2019-05-14T09:29:48.445Z,101595.65
2019-05-14T09:32:18.673Z,101599.22
2019-05-14T09:34:45.480Z,101599.22
2019-05-14T09:37:13.357Z,101603.36
2019-05-14T09:42:28.730Z,101601.19
2019-05-14T09:44:56.328Z,101595.72
2019-05-14T09:47:28.262Z,101589.10
2019-05-14T09:50:15.093Z,101591.30
2019-05-14T09:52:33.184Z,101585.47
2019-05-14T09:55:02.394Z,101585.47
2019-05-14T09:57:30.027Z,101586.47
2019-05-14T09:59:58.648Z,101586.47
2019-05-14T10:02:29.156Z,101586.72
2019-05-14T10:05:01.068Z,101581.70
2019-05-14T10:07:31.511Z,101572.15
2019-05-14T10:09:59.092Z,101572.80
2019-05-14T10:12:26.780Z,101580.06
2019-05-14T10:14:54.411Z,101582.42
2019-05-14T10:17:22.090Z,101582.42
2019-05-14T10:19:50.143Z,101574.30
2019-05-14T10:22:19.767Z,101583.53
2019-05-14T10:24:47.213Z,101587.14
2019-05-14T10:27:32.957Z,101579.70
2019-05-14T10:29:58.851Z,101578.76
2019-05-14T10:32:29.495Z,101582.87
2019-05-14T10:34:56.178Z,101574.84
2019-05-14T10:37:28.848Z,101584.28
2019-05-14T10:39:58.584Z,101584.73
2019-05-14T10:42:29.388Z,101575.14
2019-05-14T10:44:58.651Z,101561.95
2019-05-14T10:47:29.026Z,101565.60
2019-05-14T10:49:58.269Z,101555.17
2019-05-14T10:52:25.536Z,101544.54
2019-05-14T10:54:58.645Z,101543.36
2019-05-14T10:57:25.407Z,101543.36
2019-05-14T10:59:53.029Z,101542.62
2019-05-14T11:02:23.607Z,101535.92
2019-05-14T11:04:53.039Z,101531.63
2019-05-14T11:07:24.278Z,101533.95
2019-05-14T11:10:13.084Z,101521.45
2019-05-14T11:12:42.697Z,101504.19
2019-05-14T11:15:11.626Z,101513.20
2019-05-14T11:17:40.730Z,101509.84
2019-05-14T11:20:11.717Z,101510.58
2019-05-14T11:22:39.312Z,101501.55
2019-05-14T11:25:09.161Z,101498.47
2019-05-14T11:27:38.624Z,101496.95
2019-05-14T11:30:10.385Z,101489.36
2019-05-14T11:32:38.630Z,101487.23
2019-05-14T11:35:11.767Z,101480.25
2019-05-14T11:37:35.552Z,101473.98
2019-05-14T11:40:03.461Z,101470.45
2019-05-14T11:42:34.127Z,101464.93
2019-05-14T11:45:02.055Z,101465.23
2019-05-14T11:47:33.047Z,101454.95
2019-05-14T11:50:00.697Z,101459.28
2019-05-14T11:52:28.767Z,101457.73
2019-05-14T11:54:59.834Z,101450.45
2019-05-14T11:57:29.314Z,101457.97
2019-05-14T11:59:58.104Z,101451.14
2019-05-14T12:02:28.818Z,101448.98
2019-05-14T12:04:55.962Z,101439.73
2019-05-14T12:07:28.028Z,101436.08
2019-05-14T12:10:00.029Z,101432.42
2019-05-14T12:12:28.794Z,101427.48
2019-05-14T12:14:58.241Z,101423.73
2019-05-14T12:17:25.963Z,101423.73
2019-05-14T12:19:53.568Z,101430.06
2019-05-14T12:22:28.700Z,101419.20
2019-05-14T12:24:58.475Z,101419.20
2019-05-14T12:27:26.087Z,101407.08
2019-05-14T12:29:53.849Z,101408.09
2019-05-14T12:32:24.341Z,101407.94
2019-05-14T12:35:01.033Z,101407.94
2019-05-14T12:37:33.427Z,101398.55
2019-05-14T12:40:09.025Z,101391.45
2019-05-14T12:42:39.280Z,101386.58
2019-05-14T12:45:10.194Z,101391.25
2019-05-14T12:47:40.677Z,101391.25
2019-05-14T12:50:12.370Z,101397.69
2019-05-14T12:52:39.994Z,101390.70
2019-05-14T12:55:09.736Z,101399.47
2019-05-14T12:57:39.396Z,101407.69
2019-05-14T13:00:08.930Z,101407.83
2019-05-14T13:02:36.392Z,101396.75
2019-05-14T13:05:04.187Z,101387.48
2019-05-14T13:07:31.710Z,101387.61
2019-05-14T13:09:59.245Z,101387.61
2019-05-14T13:12:29.571Z,101388.05
2019-05-14T13:14:58.235Z,101401.34
2019-05-14T13:17:27.980Z,101394.20
2019-05-14T13:19:55.224Z,101383.75
2019-05-14T13:22:38.273Z,101375.95
2019-05-14T13:24:54.054Z,101367.15
2019-05-14T13:27:22.836Z,101352.41
2019-05-14T13:29:50.453Z,101350.85
2019-05-14T13:32:19.604Z,101343.06
2019-05-14T13:34:50.504Z,101349.50
2019-05-14T13:37:25.006Z,101346.02
2019-05-14T13:39:59.225Z,101358.68
2019-05-14T13:42:29.372Z,101349.61
2019-05-14T13:44:58.328Z,101348.11
2019-05-14T13:47:25.288Z,101348.11
2019-05-14T13:49:53.210Z,101341.95
2019-05-14T13:52:21.023Z,101342.37
2019-05-14T13:54:48.621Z,101345.77
2019-05-14T13:57:22.752Z,101330.80
2019-05-14T14:00:01.169Z,101326.70
2019-05-14T14:02:23.561Z,101324.33
2019-05-14T14:04:55.279Z,101320.25
2019-05-14T14:07:22.799Z,101309.83
2019-05-14T14:09:50.401Z,101304.34
2019-05-14T14:12:18.223Z,101301.51
2019-05-14T14:14:45.769Z,101307.33
2019-05-14T14:17:20.033Z,101304.02
2019-05-14T14:19:48.280Z,101297.56
2019-05-14T14:22:22.762Z,101299.92
2019-05-14T14:24:55.233Z,101299.29
2019-05-14T14:27:53.249Z,101299.50
2019-05-14T14:30:00.962Z,101289.11
2019-05-14T14:32:26.937Z,101283.33
2019-05-14T14:34:54.479Z,101266.72
2019-05-14T14:37:24.020Z,101274.83
2019-05-14T14:39:53.276Z,101276.99
2019-05-14T14:42:21.207Z,101271.10
2019-05-14T14:44:51.420Z,101287.91
2019-05-14T14:47:20.237Z,101291.84
2019-05-14T14:49:51.697Z,101282.02
2019-05-14T14:52:29.201Z,101267.96
2019-05-14T14:54:55.581Z,101255.13
2019-05-14T14:57:23.086Z,101240.84
2019-05-14T14:59:56.085Z,101245.69
2019-05-14T15:02:22.497Z,101241.75
2019-05-14T15:04:54.721Z,101243.45
2019-05-14T15:07:22.674Z,101240.39
2019-05-14T15:09:52.411Z,101237.97
2019-05-14T15:12:21.675Z,101235.23
2019-05-14T15:14:49.463Z,101251.41
2019-05-14T15:17:18.592Z,101254.61
2019-05-14T15:19:49.908Z,101245.63
2019-05-14T15:22:21.029Z,101244.05
2019-05-14T15:24:48.918Z,101242.95
2019-05-14T15:27:16.190Z,101239.97
2019-05-14T15:29:44.044Z,101241.04
2019-05-14T15:32:12.471Z,101228.97
2019-05-14T15:34:41.305Z,101235.69
2019-05-14T15:37:15.259Z,101220.61
2019-05-14T15:39:45.143Z,101220.61
2019-05-14T15:42:14.995Z,101218.84
2019-05-14T15:44:54.404Z,101210.96
2019-05-14T15:47:14.006Z,101199.09
2019-05-14T15:49:41.541Z,101201.81
2019-05-14T15:52:11.844Z,101200.76
2019-05-14T15:54:46.812Z,101196.02
2019-05-14T15:57:09.125Z,101201.92
2019-05-14T15:59:39.170Z,101215.78
2019-05-14T16:02:09.366Z,101219.62
2019-05-14T16:04:39.017Z,101224.05
2019-05-14T16:07:09.284Z,101214.69
2019-05-14T16:09:42.776Z,101200.21
2019-05-14T16:12:11.596Z,101204.23
2019-05-14T16:14:42.911Z,101207.87
2019-05-14T16:17:15.640Z,101203.02
2019-05-14T16:19:41.352Z,101198.04
2019-05-14T16:22:09.723Z,101196.95
2019-05-14T16:24:53.033Z,101192.48
2019-05-14T16:27:08.447Z,101191.70
2019-05-14T16:29:45.135Z,101185.38
2019-05-14T16:32:08.248Z,101188.14
2019-05-14T16:34:35.167Z,101186.55
2019-05-14T16:37:10.720Z,101192.15
2019-05-14T16:39:35.208Z,101188.67
2019-05-14T16:42:02.795Z,101200.27
2019-05-14T16:44:30.535Z,101207.92
2019-05-14T16:46:58.786Z,101200.55
2019-05-14T16:49:26.354Z,101211.00
2019-05-14T16:51:55.306Z,101207.81
2019-05-14T16:54:22.777Z,101204.68
2019-05-14T16:56:50.385Z,101202.94
2019-05-14T16:59:18.684Z,101200.89
2019-05-14T17:01:48.970Z,101206.64
2019-05-14T17:04:19.078Z,101199.87
2019-05-14T17:06:50.159Z,101198.87
2019-05-14T17:09:22.683Z,101199.80
2019-05-14T17:11:50.484Z,101201.59
2019-05-14T17:14:18.482Z,101210.48
2019-05-14T17:16:48.375Z,101211.03
2019-05-14T17:19:19.020Z,101214.98
2019-05-14T17:21:48.686Z,101218.69
2019-05-14T17:24:21.824Z,101214.17
2019-05-14T17:26:51.147Z,101218.83
2019-05-14T17:29:21.209Z,101210.77
2019-05-14T17:31:49.471Z,101213.09
2019-05-14T17:34:21.406Z,101211.95
2019-05-14T17:36:48.893Z,101206.28
2019-05-14T17:39:19.070Z,101206.28
2019-05-14T17:41:48.547Z,101205.34
2019-05-14T17:44:18.606Z,101201.34
2019-05-14T17:46:48.838Z,101197.05
2019-05-14T17:49:15.595Z,101197.05
2019-05-14T17:51:43.184Z,101198.40
2019-05-14T17:54:12.861Z,101198.66
2019-05-14T17:56:42.211Z,101201.48
2019-05-14T17:59:10.660Z,101194.79
2019-05-14T18:01:39.295Z,101197.46
2019-05-14T18:04:09.092Z,101197.68
2019-05-14T18:06:37.375Z,101197.68
2019-05-14T18:09:11.172Z,101184.84
2019-05-14T18:11:41.203Z,101183.00
2019-05-14T18:14:11.940Z,101188.62
2019-05-14T18:16:42.656Z,101191.27
2019-05-14T18:19:13.063Z,101184.66
2019-05-14T18:21:40.642Z,101190.02
2019-05-14T18:24:08.452Z,101192.44
2019-05-14T18:26:38.457Z,101192.17
2019-05-14T18:29:05.597Z,101190.56
2019-05-14T18:31:44.572Z,101190.39
2019-05-14T18:34:09.408Z,101188.52
2019-05-14T18:36:42.574Z,101192.45
2019-05-14T18:39:10.048Z,101190.83
2019-05-14T18:41:38.858Z,101190.83
2019-05-14T18:44:08.392Z,101185.65
2019-05-14T18:46:36.023Z,101186.09
2019-05-14T18:49:03.503Z,101185.27
2019-05-14T18:51:31.354Z,101185.27
2019-05-14T18:54:02.347Z,101183.17
2019-05-14T18:56:30.267Z,101180.20
2019-05-14T18:58:58.091Z,101183.31
2019-05-14T19:01:28.645Z,101185.38
2019-05-14T19:03:55.621Z,101181.66
2019-05-14T19:06:28.185Z,101181.66
2019-05-14T19:08:54.890Z,101182.28
2019-05-14T19:11:23.071Z,101172.63
2019-05-14T19:13:50.912Z,101172.63
2019-05-14T19:16:20.211Z,101172.21
2019-05-14T19:18:48.927Z,101175.50
2019-05-14T19:21:18.498Z,101181.21
2019-05-14T19:24:06.236Z,101178.77
2019-05-14T19:26:33.533Z,101179.41
2019-05-14T19:28:52.613Z,101182.11
2019-05-14T19:31:20.144Z,101186.75
2019-05-14T19:33:48.785Z,101181.69
2019-05-14T19:36:18.601Z,101184.20
2019-05-14T19:38:48.214Z,101184.20
2019-05-14T19:41:16.168Z,101186.47
2019-05-14T19:43:43.775Z,101182.33
2019-05-14T19:46:11.316Z,101182.64
2019-05-14T19:48:39.091Z,101182.64
2019-05-14T19:51:10.250Z,101180.54
2019-05-14T19:53:39.201Z,101181.47
2019-05-14T19:56:07.251Z,101177.22
2019-05-14T19:58:34.762Z,101174.27
2019-05-14T20:01:02.245Z,101178.08
2019-05-14T20:03:31.456Z,101175.03
2019-05-14T20:06:01.745Z,101175.03
2019-05-14T20:08:29.666Z,101178.56
2019-05-14T20:10:59.217Z,101174.94
2019-05-14T20:13:30.033Z,101179.80
2019-05-14T20:15:59.025Z,101179.41
2019-05-14T20:18:29.980Z,101181.48
2019-05-14T20:20:59.157Z,101181.48
2019-05-14T20:26:18.325Z,101180.50
2019-05-14T20:28:48.223Z,101180.50
2019-05-14T20:31:34.740Z,101187.55
2019-05-14T20:37:09.149Z,101180.72
2019-05-14T20:39:39.055Z,101180.72
2019-05-14T20:42:10.205Z,101178.55
2019-05-14T20:44:56.641Z,101178.14
2019-05-14T20:50:48.202Z,101175.59
2019-05-14T20:53:18.281Z,101177.94
2019-05-14T20:56:03.949Z,101177.14
2019-05-14T20:58:33.573Z,101178.95
2019-05-14T21:01:19.911Z,101180.65
2019-05-14T21:03:48.300Z,101176.12
2019-05-14T21:06:19.831Z,101176.06
2019-05-14T21:09:19.133Z,101168.53
2019-05-14T21:11:40.262Z,101177.22
2019-05-14T21:14:27.043Z,101170.59
2019-05-14T21:17:13.443Z,101173.86
2019-05-14T21:19:59.956Z,101173.86
2019-05-14T21:25:34.495Z,101167.96
2019-05-14T21:28:02.359Z,101169.00
2019-05-14T21:30:48.825Z,101173.53
2019-05-14T21:33:19.284Z,101173.53
2019-05-14T21:36:05.693Z,101172.68
2019-05-14T21:38:34.025Z,101170.02
2019-05-14T21:41:20.687Z,101174.49
2019-05-14T21:44:08.487Z,101176.36
2019-05-14T21:47:08.660Z,101172.42
2019-05-14T21:49:28.367Z,101172.42
2019-05-14T21:51:58.026Z,101174.20
2019-05-14T21:57:12.043Z,101170.28
2019-05-14T22:02:34.709Z,101161.45
2019-05-14T22:07:57.827Z,101170.18
2019-05-14T22:10:25.330Z,101167.43
2019-05-14T22:13:11.843Z,101167.43
2019-05-14T22:15:55.229Z,101165.27
2019-05-14T22:21:04.234Z,101165.94
2019-05-14T22:23:50.661Z,101165.94
2019-05-14T22:29:10.351Z,101166.72
2019-05-14T22:31:38.894Z,101159.55
2019-05-14T22:34:08.869Z,101159.20
2019-05-14T22:36:58.046Z,101156.25
2019-05-14T22:39:25.576Z,101156.25
2019-05-14T22:42:12.021Z,101166.05
2019-05-14T22:44:39.801Z,101166.05
2019-05-14T22:49:42.274Z,101164.48
2019-05-14T22:52:43.299Z,101165.00
2019-05-14T22:57:49.790Z,101162.70
2019-05-14T23:00:20.709Z,101162.70
2019-05-14T23:02:48.687Z,101162.52
2019-05-14T23:05:19.082Z,101164.94
2019-05-14T23:07:48.439Z,101160.88
2019-05-14T23:10:34.370Z,101160.47
2019-05-14T23:13:20.720Z,101175.66
2019-05-14T23:16:08.197Z,101172.42
2019-05-14T23:21:41.951Z,101165.14
2019-05-14T23:24:28.645Z,101156.13
2019-05-14T23:27:18.711Z,101154.67
2019-05-14T23:30:04.440Z,101154.86
2019-05-14T23:32:53.328Z,101159.36
2019-05-14T23:35:20.956Z,101159.36
2019-05-14T23:37:49.067Z,101159.02
2019-05-14T23:40:38.758Z,101154.27
2019-05-14T23:43:24.619Z,101151.23
2019-05-14T23:46:23.088Z,101147.31
2019-05-14T23:48:59.305Z,101142.56
2019-05-14T23:51:28.978Z,101142.56
2019-05-14T23:53:57.788Z,101140.92
2019-05-14T23:56:25.427Z,101145.47
2019-05-14T23:59:11.848Z,101148.39
